Time,TemperatureF,DewpointF,PressureIn,WindDirection,WindDirectionDegrees,WindSpeedMPH,WindSpeedGustMPH,Humidity,HourlyPrecipIn,Conditions,Clouds,dailyrainin,SoftwareType,DateUTC
2013-04-15 00:03:00,69.0,-99.9,29.81,WNW,297,5.0,6.0,-999,-99.99,,,-99.99,,2013-04-15 05:03:00,
2013-04-15 00:13:00,69.0,-99.9,29.81,NW,321,3.0,3.0,-999,-99.99,,,-99.99,,2013-04-15 05:13:00,
2013-04-15 00:23:00,69.0,-99.9,29.82,NE,54,1.0,2.0,-999,-99.99,,,-99.99,,2013-04-15 05:23:00,
2013-04-15 00:33:00,69.0,-99.9,29.82,East,79,2.0,2.0,-999,-99.99,,,-99.99,,2013-04-15 05:33:00,
2013-04-15 00:43:00,69.0,-99.9,29.83,ENE,75,2.0,2.0,-999,-99.99,,,-99.99,,2013-04-15 05:43:00,
2013-04-15 00:53:00,69.0,-99.9,29.83,ESE,109,3.0,4.0,-999,-99.99,,,-99.99,,2013-04-15 05:53:00,
2013-04-15 01:02:00,69.0,-99.9,29.83,ESE,117,4.0,5.0,-999,-99.99,,,-99.99,,2013-04-15 06:02:00,
2013-04-15 01:12:00,69.0,-99.9,29.83,ESE,111,5.0,5.0,-999,-99.99,,,-99.99,,2013-04-15 06:12:00,
2013-04-15 01:23:00,69.0,-99.9,29.83,ESE,108,6.0,6.0,-999,-99.99,,,-99.99,,2013-04-15 06:23:00,
2013-04-15 01:34:00,69.0,-99.9,29.83,East,99,5.0,6.0,-999,-99.99,,,-99.99,,2013-04-15 06:34:00,
2013-04-15 01:43:00,68.0,-99.9,29.84,ESE,102,6.0,7.0,-999,-99.99,,,-99.99,,2013-04-15 06:43:00,
2013-04-15 01:53:00,68.0,-99.9,29.84,ESE,111,9.0,9.0,-999,-99.99,,,-99.99,,2013-04-15 06:53:00,
2013-04-15 02:03:00,68.0,-99.9,29.84,ESE,108,8.0,8.0,-999,-99.99,,,-99.99,,2013-04-15 07:03:00,
2013-04-15 02:42:00,68.0,-99.9,29.84,ESE,107,7.0,7.0,-999,-99.99,,,-99.99,,2013-04-15 07:42:00,
2013-04-15 02:54:00,69.0,-99.9,29.84,SE,138,2.0,3.0,-999,-99.99,,,-99.99,,2013-04-15 07:54:00,
2013-04-15 03:03:00,69.0,-99.9,29.84,ENE,67,3.0,4.0,-999,-99.99,,,-99.99,,2013-04-15 08:03:00,
2013-04-15 03:14:00,69.0,-99.9,29.83,NNE,32,2.0,3.0,-999,-99.99,,,-99.99,,2013-04-15 08:14:00,
2013-04-15 03:23:00,69.0,-99.9,29.84,NE,47,4.0,4.0,-999,-99.99,,,-99.99,,2013-04-15 08:23:00,
2013-04-15 03:34:00,69.0,-99.9,29.83,ENE,57,3.0,3.0,-999,-99.99,,,-99.99,,2013-04-15 08:34:00,
2013-04-15 03:43:00,69.0,-99.9,29.84,ENE,73,5.0,6.0,-999,-99.99,,,-99.99,,2013-04-15 08:43:00,
2013-04-15 03:52:00,69.0,-99.9,29.84,NE,52,3.0,4.0,-999,-99.99,,,-99.99,,2013-04-15 08:52:00,
2013-04-15 04:03:00,69.0,-99.9,29.85,NE,56,3.0,4.0,-999,-99.99,,,-99.99,,2013-04-15 09:03:00,
2013-04-15 04:13:00,69.0,-99.9,29.85,NE,45,2.0,4.0,-999,-99.99,,,-99.99,,2013-04-15 09:13:00,
2013-04-15 04:23:00,69.0,-99.9,29.85,NE,42,2.0,3.0,-999,-99.99,,,-99.99,,2013-04-15 09:23:00,
2013-04-15 04:33:00,68.0,-99.9,29.85,East,79,4.0,4.0,-999,-99.99,,,-99.99,,2013-04-15 09:33:00,
2013-04-15 04:43:00,68.0,-99.9,29.85,ENE,76,4.0,4.0,-999,-99.99,,,-99.99,,2013-04-15 09:43:00,
2013-04-15 04:53:00,68.0,-99.9,29.86,ENE,68,4.0,4.0,-999,-99.99,,,-99.99,,2013-04-15 09:53:00,
2013-04-15 05:03:00,68.0,-99.9,29.86,East,85,4.0,5.0,-999,-99.99,,,-99.99,,2013-04-15 10:03:00,
2013-04-15 05:13:00,68.0,-99.9,29.86,East,88,4.0,5.0,-999,-99.99,,,-99.99,,2013-04-15 10:13:00,
2013-04-15 05:23:00,68.0,-99.9,29.86,East,90,6.0,6.0,-999,-99.99,,,-99.99,,2013-04-15 10:23:00,
2013-04-15 05:33:00,68.0,-99.9,29.87,East,95,6.0,6.0,-999,-99.99,,,-99.99,,2013-04-15 10:33:00,
2013-04-15 05:42:00,68.0,-99.9,29.87,ESE,106,7.0,8.0,-999,-99.99,,,-99.99,,2013-04-15 10:42:00,
2013-04-15 05:53:00,68.0,-99.9,29.88,ESE,114,7.0,8.0,-999,-99.99,,,-99.99,,2013-04-15 10:53:00,
2013-04-15 06:03:00,68.0,-99.9,29.88,ESE,110,8.0,9.0,-999,-99.99,,,-99.99,,2013-04-15 11:03:00,
2013-04-15 06:13:00,68.0,-99.9,29.88,ESE,111,7.0,8.0,-999,-99.99,,,-99.99,,2013-04-15 11:13:00,
2013-04-15 06:23:00,68.0,-99.9,29.89,ESE,110,8.0,9.0,-999,-99.99,,,-99.99,,2013-04-15 11:23:00,
2013-04-15 06:33:00,68.0,-99.9,29.89,ESE,107,9.0,10.0,-999,-99.99,,,-99.99,,2013-04-15 11:33:00,
2013-04-15 06:44:00,68.0,-99.9,29.90,ESE,107,9.0,10.0,-999,-99.99,,,-99.99,,2013-04-15 11:44:00,
2013-04-15 06:54:00,68.0,-99.9,29.90,ESE,106,9.0,11.0,-999,-99.99,,,-99.99,,2013-04-15 11:54:00,
2013-04-15 07:05:00,68.0,-99.9,29.91,ESE,109,10.0,12.0,-999,-99.99,,,-99.99,,2013-04-15 12:05:00,
2013-04-15 07:14:00,68.0,-99.9,29.91,ESE,108,11.0,12.0,-999,-99.99,,,-99.99,,2013-04-15 12:14:00,
2013-04-15 07:23:00,69.0,-99.9,29.91,ESE,105,10.0,12.0,-999,-99.99,,,-99.99,,2013-04-15 12:23:00,
2013-04-15 07:34:00,69.0,-99.9,29.92,East,99,10.0,11.0,-999,-99.99,,,-99.99,,2013-04-15 12:34:00,
2013-04-15 07:43:00,69.0,-99.9,29.92,ESE,107,10.0,12.0,-999,-99.99,,,-99.99,,2013-04-15 12:43:00,
2013-04-15 07:54:00,69.0,-99.9,29.92,ESE,103,10.0,12.0,-999,-99.99,,,-99.99,,2013-04-15 12:54:00,
2013-04-15 08:05:00,69.0,-99.9,29.93,ESE,103,9.0,11.0,-999,-99.99,,,-99.99,,2013-04-15 13:05:00,
2013-04-15 08:13:00,69.0,-99.9,29.93,ESE,107,11.0,13.0,-999,-99.99,,,-99.99,,2013-04-15 13:13:00,
2013-04-15 08:24:00,69.0,-99.9,29.93,ESE,112,14.0,15.0,-999,-99.99,,,-99.99,,2013-04-15 13:24:00,
2013-04-15 08:34:00,69.0,-99.9,29.93,ESE,102,13.0,15.0,-999,-99.99,,,-99.99,,2013-04-15 13:34:00,
2013-04-15 08:43:00,69.0,-99.9,29.94,East,101,10.0,13.0,-999,-99.99,,,-99.99,,2013-04-15 13:43:00,
2013-04-15 08:54:00,69.0,-99.9,29.94,ESE,106,12.0,14.0,-999,-99.99,,,-99.99,,2013-04-15 13:54:00,
2013-04-15 09:05:00,69.0,-99.9,29.94,ESE,107,13.0,15.0,-999,-99.99,,,-99.99,,2013-04-15 14:05:00,
2013-04-15 09:14:00,69.0,-99.9,29.95,ESE,113,15.0,17.0,-999,-99.99,,,-99.99,,2013-04-15 14:14:00,
2013-04-15 09:23:00,69.0,-99.9,29.95,ESE,104,14.0,16.0,-999,-99.99,,,-99.99,,2013-04-15 14:23:00,
2013-04-15 09:34:00,69.0,-99.9,29.95,ESE,107,13.0,17.0,-999,-99.99,,,-99.99,,2013-04-15 14:34:00,
2013-04-15 09:45:00,69.0,-99.9,29.95,ESE,105,14.0,16.0,-999,-99.99,,,-99.99,,2013-04-15 14:45:00,
2013-04-15 09:55:00,69.0,-99.9,29.95,ESE,112,13.0,17.0,-999,-99.99,,,-99.99,,2013-04-15 14:55:00,
2013-04-15 10:04:00,69.0,-99.9,29.95,ESE,107,13.0,16.0,-999,-99.99,,,-99.99,,2013-04-15 15:04:00,
2013-04-15 10:13:00,70.0,-99.9,29.95,ESE,110,15.0,17.0,-999,-99.99,,,-99.99,,2013-04-15 15:13:00,
2013-04-15 10:25:00,70.0,-99.9,29.95,ESE,112,15.0,19.0,-999,-99.99,,,-99.99,,2013-04-15 15:25:00,
2013-04-15 10:37:00,70.0,-99.9,29.96,ESE,113,16.0,18.0,-999,-99.99,,,-99.99,,2013-04-15 15:37:00,
2013-04-15 10:45:00,70.0,-99.9,29.96,ESE,112,16.0,19.0,-999,-99.99,,,-99.99,,2013-04-15 15:45:00,
2013-04-15 10:55:00,70.0,-99.9,29.96,ESE,116,15.0,19.0,-999,-99.99,,,-99.99,,2013-04-15 15:55:00,
2013-04-15 11:05:00,70.0,-99.9,29.96,ESE,115,15.0,18.0,-999,-99.99,,,-99.99,,2013-04-15 16:05:00,
2013-04-15 11:14:00,70.0,-99.9,29.96,ESE,114,16.0,19.0,-999,-99.99,,,-99.99,,2013-04-15 16:14:00,
2013-04-15 11:25:00,70.0,-99.9,29.96,ESE,112,16.0,19.0,-999,-99.99,,,-99.99,,2013-04-15 16:25:00,
2013-04-15 11:34:00,70.0,-99.9,29.97,ESE,115,17.0,20.0,-999,-99.99,,,-99.99,,2013-04-15 16:34:00,
2013-04-15 11:45:00,70.0,-99.9,29.97,ESE,114,17.0,20.0,-999,-99.99,,,-99.99,,2013-04-15 16:45:00,
2013-04-15 11:54:00,70.0,-99.9,29.97,ESE,115,17.0,19.0,-999,-99.99,,,-99.99,,2013-04-15 16:54:00,
2013-04-15 12:04:00,70.0,-99.9,29.97,ESE,113,16.0,20.0,-999,-99.99,,,-99.99,,2013-04-15 17:04:00,
2013-04-15 12:15:00,70.0,-99.9,29.98,ESE,112,15.0,18.0,-999,-99.99,,,-99.99,,2013-04-15 17:15:00,
2013-04-15 12:22:00,70.0,-99.9,29.97,ESE,114,15.0,18.0,-999,-99.99,,,-99.99,,2013-04-15 17:22:00,
2013-04-15 12:33:00,70.0,-99.9,29.97,ESE,113,15.0,18.0,-999,-99.99,,,-99.99,,2013-04-15 17:33:00,
2013-04-15 12:43:00,71.0,-99.9,29.98,ESE,120,14.0,17.0,-999,-99.99,,,-99.99,,2013-04-15 17:43:00,
2013-04-15 12:53:00,71.0,-99.9,29.97,ESE,117,13.0,16.0,-999,-99.99,,,-99.99,,2013-04-15 17:53:00,
2013-04-15 13:04:00,71.0,-99.9,29.97,ESE,118,13.0,18.0,-999,-99.99,,,-99.99,,2013-04-15 18:04:00,
2013-04-15 13:13:00,71.0,-99.9,29.97,ESE,119,13.0,16.0,-999,-99.99,,,-99.99,,2013-04-15 18:13:00,
2013-04-15 13:24:00,71.0,-99.9,29.97,ESE,119,14.0,17.0,-999,-99.99,,,-99.99,,2013-04-15 18:24:00,
2013-04-15 13:33:00,71.0,-99.9,29.97,ESE,117,15.0,18.0,-999,-99.99,,,-99.99,,2013-04-15 18:33:00,
2013-04-15 13:42:00,71.0,-99.9,29.97,ESE,115,16.0,19.0,-999,-99.99,,,-99.99,,2013-04-15 18:42:00,
2013-04-15 13:52:00,71.0,-99.9,29.97,ESE,113,16.0,19.0,-999,-99.99,,,-99.99,,2013-04-15 18:52:00,
2013-04-15 14:02:00,71.0,-99.9,29.97,ESE,112,15.0,19.0,-999,-99.99,,,-99.99,,2013-04-15 19:02:00,
2013-04-15 14:12:00,71.0,-99.9,29.97,ESE,113,15.0,18.0,-999,-99.99,,,-99.99,,2013-04-15 19:12:00,
2013-04-15 14:22:00,71.0,-99.9,29.97,ESE,111,15.0,18.0,-999,-99.99,,,-99.99,,2013-04-15 19:22:00,
2013-04-15 14:39:00,71.0,-99.9,29.97,ESE,113,15.0,19.0,-999,-99.99,,,-99.99,,2013-04-15 19:39:00,
2013-04-15 14:59:00,71.0,-99.9,29.96,ESE,112,17.0,21.0,-999,-99.99,,,-99.99,,2013-04-15 19:59:00,
2013-04-15 15:02:00,71.0,-99.9,29.96,ESE,111,17.0,21.0,-999,-99.99,,,-99.99,,2013-04-15 20:02:00,
2013-04-15 15:12:00,71.0,-99.9,29.96,ESE,110,19.0,23.0,-999,-99.99,,,-99.99,,2013-04-15 20:12:00,
2013-04-15 15:22:00,71.0,-99.9,29.95,ESE,110,19.0,23.0,-999,-99.99,,,-99.99,,2013-04-15 20:22:00,
2013-04-15 15:32:00,71.0,-99.9,29.95,ESE,110,18.0,23.0,-999,-99.99,,,-99.99,,2013-04-15 20:32:00,
2013-04-15 15:42:00,71.0,-99.9,29.96,ESE,110,17.0,22.0,-999,-99.99,,,-99.99,,2013-04-15 20:42:00,
2013-04-15 15:52:00,71.0,-99.9,29.96,ESE,111,18.0,20.0,-999,-99.99,,,-99.99,,2013-04-15 20:52:00,
2013-04-15 16:02:00,71.0,-99.9,29.96,ESE,112,17.0,20.0,-999,-99.99,,,-99.99,,2013-04-15 21:02:00,
2013-04-15 16:12:00,71.0,-99.9,29.95,ESE,111,17.0,20.0,-999,-99.99,,,-99.99,,2013-04-15 21:12:00,
2013-04-15 16:22:00,71.0,-99.9,29.95,ESE,109,17.0,19.0,-999,-99.99,,,-99.99,,2013-04-15 21:22:00,
2013-04-15 16:33:00,70.0,-99.9,29.95,ESE,109,15.0,18.0,-999,-99.99,,,-99.99,,2013-04-15 21:33:00,
2013-04-15 16:43:00,70.0,-99.9,29.95,ESE,109,16.0,19.0,-999,-99.99,,,-99.99,,2013-04-15 21:43:00,
2013-04-15 16:53:00,70.0,-99.9,29.95,ESE,113,17.0,19.0,-999,-99.99,,,-99.99,,2013-04-15 21:53:00,
2013-04-15 17:02:00,70.0,-99.9,29.95,ESE,112,17.0,19.0,-999,-99.99,,,-99.99,,2013-04-15 22:02:00,
2013-04-15 17:13:00,71.0,-99.9,29.95,ESE,115,17.0,20.0,-999,-99.99,,,-99.99,,2013-04-15 22:13:00,
2013-04-15 17:23:00,71.0,-99.9,29.96,ESE,118,17.0,21.0,-999,-99.99,,,-99.99,,2013-04-15 22:23:00,
2013-04-15 17:33:00,71.0,-99.9,29.96,ESE,119,17.0,20.0,-999,-99.99,,,-99.99,,2013-04-15 22:33:00,
2013-04-15 17:42:00,71.0,-99.9,29.95,ESE,118,17.0,19.0,-999,-99.99,,,-99.99,,2013-04-15 22:42:00,
2013-04-15 17:52:00,71.0,-99.9,29.96,ESE,120,17.0,19.0,-999,-99.99,,,-99.99,,2013-04-15 22:52:00,
2013-04-15 18:02:00,71.0,-99.9,29.96,ESE,121,19.0,20.0,-999,-99.99,,,-99.99,,2013-04-15 23:02:00,
2013-04-15 18:12:00,71.0,-99.9,29.96,ESE,120,16.0,18.0,-999,-99.99,,,-99.99,,2013-04-15 23:12:00,
2013-04-15 18:22:00,71.0,-99.9,29.96,ESE,123,18.0,20.0,-999,-99.99,,,-99.99,,2013-04-15 23:22:00,
2013-04-15 18:32:00,70.0,-99.9,29.96,SE,124,18.0,19.0,-999,-99.99,,,-99.99,,2013-04-15 23:32:00,
2013-04-15 18:42:00,70.0,-99.9,29.96,ESE,122,16.0,18.0,-999,-99.99,,,-99.99,,2013-04-15 23:42:00,
2013-04-15 18:52:00,70.0,-99.9,29.97,ESE,118,16.0,18.0,-999,-99.99,,,-99.99,,2013-04-15 23:52:00,
2013-04-15 19:03:00,70.0,-99.9,29.97,ESE,117,17.0,19.0,-999,-99.99,,,-99.99,,2013-04-16 00:03:00,
2013-04-15 19:12:00,70.0,-99.9,29.97,ESE,117,16.0,19.0,-999,-99.99,,,-99.99,,2013-04-16 00:12:00,
2013-04-15 19:22:00,70.0,-99.9,29.97,ESE,123,18.0,20.0,-999,-99.99,,,-99.99,,2013-04-16 00:22:00,
2013-04-15 19:32:00,70.0,-99.9,29.97,ESE,123,18.0,20.0,-999,-99.99,,,-99.99,,2013-04-16 00:32:00,
2013-04-15 19:42:00,70.0,-99.9,29.97,SE,124,18.0,20.0,-999,-99.99,,,-99.99,,2013-04-16 00:42:00,
2013-04-15 19:52:00,70.0,-99.9,29.97,SE,127,19.0,21.0,-999,-99.99,,,-99.99,,2013-04-16 00:52:00,
2013-04-15 20:02:00,70.0,-99.9,29.97,SE,125,19.0,21.0,-999,-99.99,,,-99.99,,2013-04-16 01:02:00,
2013-04-15 20:12:00,70.0,-99.9,29.98,SE,125,17.0,19.0,-999,-99.99,,,-99.99,,2013-04-16 01:12:00,
2013-04-15 20:22:00,70.0,-99.9,29.98,ESE,123,17.0,19.0,-999,-99.99,,,-99.99,,2013-04-16 01:22:00,
2013-04-15 20:32:00,70.0,-99.9,29.98,ESE,123,17.0,19.0,-999,-99.99,,,-99.99,,2013-04-16 01:32:00,
2013-04-15 20:42:00,70.0,-99.9,29.98,SE,127,18.0,20.0,-999,-99.99,,,-99.99,,2013-04-16 01:42:00,
2013-04-15 20:52:00,70.0,-99.9,29.99,SE,126,17.0,19.0,-999,-99.99,,,-99.99,,2013-04-16 01:52:00,
2013-04-15 21:02:00,70.0,-99.9,29.99,SE,124,16.0,18.0,-999,-99.99,,,-99.99,,2013-04-16 02:02:00,
2013-04-15 21:12:00,70.0,-99.9,30.00,SE,125,15.0,17.0,-999,-99.99,,,-99.99,,2013-04-16 02:12:00,
2013-04-15 21:22:00,70.0,-99.9,30.00,SE,127,16.0,18.0,-999,-99.99,,,-99.99,,2013-04-16 02:22:00,
2013-04-15 21:32:00,70.0,-99.9,30.01,SE,128,17.0,19.0,-999,-99.99,,,-99.99,,2013-04-16 02:32:00,
2013-04-15 21:42:00,70.0,-99.9,30.01,SE,127,17.0,19.0,-999,-99.99,,,-99.99,,2013-04-16 02:42:00,
2013-04-15 21:52:00,70.0,-99.9,30.01,SE,124,17.0,18.0,-999,-99.99,,,-99.99,,2013-04-16 02:52:00,
2013-04-15 22:02:00,70.0,-99.9,30.01,SE,125,16.0,18.0,-999,-99.99,,,-99.99,,2013-04-16 03:02:00,
2013-04-15 22:12:00,70.0,-99.9,30.02,SE,127,15.0,17.0,-999,-99.99,,,-99.99,,2013-04-16 03:12:00,
2013-04-15 22:22:00,70.0,-99.9,30.02,SE,128,16.0,18.0,-999,-99.99,,,-99.99,,2013-04-16 03:22:00,
2013-04-15 22:33:00,70.0,-99.9,30.02,SE,130,16.0,18.0,-999,-99.99,,,-99.99,,2013-04-16 03:33:00,
2013-04-15 22:43:00,71.0,-99.9,30.02,SE,131,16.0,18.0,-999,-99.99,,,-99.99,,2013-04-16 03:43:00,
2013-04-15 22:53:00,71.0,-99.9,30.02,SE,132,16.0,18.0,-999,-99.99,,,-99.99,,2013-04-16 03:53:00,
2013-04-15 23:03:00,71.0,-99.9,30.03,SE,134,15.0,17.0,-999,-99.99,,,-99.99,,2013-04-16 04:03:00,
2013-04-15 23:13:00,71.0,-99.9,30.03,SE,137,16.0,19.0,-999,-99.99,,,-99.99,,2013-04-16 04:13:00,
2013-04-15 23:23:00,71.0,-99.9,30.02,SE,138,17.0,20.0,-999,-99.99,,,-99.99,,2013-04-16 04:23:00,
2013-04-15 23:33:00,71.0,-99.9,30.02,SE,137,17.0,19.0,-999,-99.99,,,-99.99,,2013-04-16 04:33:00,
2013-04-15 23:42:00,70.0,-99.9,30.02,SE,140,16.0,19.0,-999,-99.99,,,-99.99,,2013-04-16 04:42:00,
2013-04-15 23:53:00,70.0,-99.9,30.03,SE,143,17.0,19.0,-999,-99.99,,,-99.99,,2013-04-16 04:53:00,